Alden, NY

10:44 PM EDT on August 31, 2015 (GMT -0400)
West Alden | | Change Station
CLOSE
Current Station
Personal Weather Station
Location: Alden, NY
Elevation: 840 ft
Nearby Weather Stations

Elev 840 ft 42.89 °N, 78.53 °W | Updated 4 minutes ago

Clear
Clear
66.6 °F
Feels Like 66.6 °F
N
0.0
Wind Variable Wind from SSE
Gusts 0.0 mph

Today
High -- | Low -- °F
--% Chance of Precip.
Yesterday
High -- | Low -- °F
Precip. -- in
6:37 AM 7:50 PM
Waning Gibbous, 92% visible
Pressure 30.04 in
Visibility 5.0 miles
Clouds Few 700 ft
Dew Point 61 °F
Humidity 82%
Rainfall 0.00 in
Snow Depth Not available.
UV 0 out of 12
Pollen 10.80 out of 12
Air Quality Not available.
Flu Activity Not available.
SPECI KBUF 010202Z 22008KT 5SM BR FEW007 22/21 A3004 RMK AO2 T02220206
Pressure 30.04 in
Visibility 5.0 miles
Clouds Few 700 ft
Dew Point 61 °F
Humidity 82%
Rainfall 0.00 in
Snow Depth Not available.
UV 0 out of 12
Pollen 10.80 out of 12
Air Quality Not available.
Flu Activity Not available.
SPECI KBUF 010202Z 22008KT 5SM BR FEW007 22/21 A3004 RMK AO2 T02220206

10-Day Weather Forecast

×

Almanac

Astronomy

Aug. 31, 2015 Rise Set
Actual Time
Civil Twilight
Nautical Twilight
Astronomical Twilight
Moon
Length of Visible Light
Length of Day
Tomorrow will be .
, % of the Moon is Illuminated

Today's Extremes

State Highs State Lows

Community

WunderPhotos

Upload Photos

1,851,459 photos uploaded!

WunderBlogs® & News

Nearby

Air Quality

  Air Quality AQ Index Pollutant
Not available.

Snow Depth

Station Depth Elevation

Earthquake Activity

City Distance Mag. Time & Date
Minimum magnitude displayed is 2.5.

Coastal Water Temperatures

Place Temperature

Stations

Nearby Weather Stations

Station Location Temp. Windchill Dew Point Humidity Wind Precip. Elev Updated Type